Paphos, Cyprus
Current Conditions -  °F | °C
As of 10:00 AM on Sunday 26 Oct 2014 (Local Time) from LCPH Reporting Station
Few Clouds Few Clouds  
Wind Chill: 77°   Ceiling: Unl
Heat Index: 79°   Visibility: 6mi
Dew Point: 64°   Wind: 3mph
Humidity: 65%   Direction: 50°NE
Pressure: 30"   Gusts: NA
Location:  34.77°N, 32.4°E
Report Text: LCPH 260700Z 05003KT 360V130 9999 FEW020TCU 25/18 Q1016
Loading
Personal Weather Stations






























Interactive Weather Map
Tropical Storm Tracking
New forecast layout! Learn more

10-Day Weather Forecast

Advertisements
Track Severe Weather on mobile